Time;durP1;ratioP1;P1;durP2;ratioP2;P2;SDS_P1;SDS_P2;PMS_P1;PMS_P2;Temp;Humidity;BMP_temperature;BMP_pressure;BME280_temperature;BME280_humidity;BME280_pressure;Samples;Min_cycle;Max_cycle;Signal;HPM_P1;HPM_P2
2022/09/04 00:01:12;;;;;;;11.57;4.40;;;16.40;78.20;;;;;;4954435;29;20353;-71
2022/09/04 00:03:52;;;;;;;12.35;4.65;;;16.30;78.20;;;;;;4954890;29;20371;-71
2022/09/04 00:06:24;;;;;;;9.60;4.25;;;16.30;78.30;;;;;;4936848;29;20130;-70
2022/09/04 00:09:11;;;;;;;9.60;4.00;;;16.30;78.30;;;;;;4936615;29;20059;-70
2022/09/04 00:11:54;;;;;;;9.32;4.32;;;16.30;78.40;;;;;;4953947;29;20055;-71
2022/09/04 00:14:35;;;;;;;11.77;4.45;;;16.30;78.40;;;;;;4954162;29;20490;-71
2022/09/04 00:17:09;;;;;;;11.63;4.18;;;16.20;78.70;;;;;;4954566;29;20051;-71
2022/09/04 00:19:58;;;;;;;9.73;4.30;;;16.20;78.60;;;;;;4921686;29;20118;-73
2022/09/04 00:22:47;;;;;;;8.15;4.10;;;16.10;78.70;;;;;;4937824;29;20055;-71
2022/09/04 00:25:36;;;;;;;10.63;4.50;;;16.10;78.70;;;;;;4940604;29;20054;-70
2022/09/04 00:28:09;;;;;;;8.32;4.30;;;16.10;78.70;;;;;;4932379;29;20444;-71
2022/09/04 00:30:45;;;;;;;10.13;4.07;;;16.10;78.70;;;;;;4924397;29;20066;-70
2022/09/04 00:33:32;;;;;;;9.15;4.03;;;16.00;79.00;;;;;;4957722;29;20047;-71
2022/09/04 00:36:02;;;;;;;19.92;4.60;;;16.00;79.00;;;;;;4957365;29;20190;-72
2022/09/04 00:38:40;;;;;;;12.00;4.70;;;16.00;78.90;;;;;;4957190;29;20043;-72
2022/09/04 00:41:20;;;;;;;9.38;4.18;;;15.90;79.10;;;;;;4957456;29;20065;-71
2022/09/04 00:44:10;;;;;;;10.77;4.43;;;15.90;79.90;;;;;;4957357;29;20146;-71
2022/09/04 00:47:17;;;;;;;11.65;4.32;;;15.90;79.30;;;;;;4956725;29;20089;-71
2022/09/04 00:50:22;;;;;;;9.90;4.50;;;15.80;79.30;;;;;;4940223;29;20071;-72
2022/09/04 00:53:26;;;;;;;12.13;4.63;;;15.80;79.40;;;;;;4956861;29;20055;-71
2022/09/04 00:56:14;;;;;;;11.02;4.90;;;15.70;79.40;;;;;;4939633;29;20396;-74
2022/09/04 00:59:04;;;;;;;16.60;4.55;;;15.70;79.20;;;;;;4939780;29;20055;-71
2022/09/04 01:01:30;;;;;;;11.85;4.28;;;15.70;79.60;;;;;;4939868;29;20439;-71
2022/09/04 01:04:15;;;;;;;12.75;4.68;;;15.60;79.40;;;;;;4956496;29;20059;-71
2022/09/04 01:07:22;;;;;;;10.48;4.90;;;15.60;79.70;;;;;;4956836;29;20047;-71
2022/09/04 01:10:12;;;;;;;16.38;5.05;;;15.60;80.00;;;;;;4956072;29;20566;-71
2022/09/04 01:13:05;;;;;;;14.40;5.07;;;15.50;80.90;;;;;;4939410;29;20043;-71
2022/09/04 01:15:37;;;;;;;8.50;4.43;;;15.50;81.50;;;;;;4956506;29;20043;-71
2022/09/04 01:18:22;;;;;;;9.50;4.50;;;15.40;80.30;;;;;;4939133;29;20498;-71
2022/09/04 01:21:05;;;;;;;11.38;5.03;;;15.40;80.70;;;;;;4939918;29;20069;-71
2022/09/04 01:24:01;;;;;;;10.70;4.68;;;15.40;80.90;;;;;;4956581;29;20087;-70
2022/09/04 01:26:45;;;;;;;10.65;4.78;;;15.40;81.00;;;;;;4956650;29;20043;-72
2022/09/04 01:29:34;;;;;;;9.65;4.97;;;15.30;80.70;;;;;;4939631;29;20044;-69
2022/09/04 01:32:33;;;;;;;13.55;5.30;;;15.30;81.10;;;;;;4908216;29;20123;-71
2022/09/04 01:35:29;;;;;;;12.52;5.05;;;15.30;81.70;;;;;;4955914;28;20051;-70
2022/09/04 01:38:13;;;;;;;;;;;15.20;81.30;;;;;;4939988;29;20389;-73
2022/09/04 01:40:45;;;;;;;15.10;5.03;;;15.20;82.20;;;;;;4956161;29;19977;-70
2022/09/04 01:43:16;;;;;;;13.02;5.20;;;15.20;80.80;;;;;;4956323;29;20364;-70
2022/09/04 01:46:06;;;;;;;16.63;4.85;;;15.20;81.00;;;;;;4938653;29;20476;-70
2022/09/04 01:48:51;;;;;;;12.95;5.10;;;15.10;82.10;;;;;;4955933;29;20051;-71
2022/09/04 01:51:57;;;;;;;14.60;5.35;;;15.10;82.00;;;;;;4956357;28;20039;-71
2022/09/04 01:54:57;;;;;;;11.57;5.03;;;15.10;82.30;;;;;;4955773;29;20051;-72
2022/09/04 01:57:29;;;;;;;13.55;5.05;;;15.00;82.10;;;;;;4955092;29;20491;-70
2022/09/04 01:59:57;;;;;;;12.35;5.38;;;15.00;82.00;;;;;;4955520;29;20493;-71
2022/09/04 02:02:30;;;;;;;18.83;5.93;;;15.00;81.90;;;;;;4939301;29;20133;-71
2022/09/04 02:05:14;;;;;;;12.20;5.18;;;15.00;82.10;;;;;;4955317;29;20492;-71
2022/09/04 02:07:55;;;;;;;11.80;5.30;;;15.00;82.70;;;;;;4937950;29;20062;-71
2022/09/04 02:10:27;;;;;;;15.02;6.03;;;14.90;82.20;;;;;;4938839;29;20094;-72
2022/09/04 02:13:21;;;;;;;12.65;5.65;;;14.90;82.20;;;;;;4955518;29;20187;-71
2022/09/04 02:16:03;;;;;;;12.27;5.53;;;14.90;82.90;;;;;;4955469;29;20499;-71
2022/09/04 02:18:49;;;;;;;12.80;5.45;;;14.90;83.10;;;;;;4955364;29;20469;-71
2022/09/04 02:21:34;;;;;;;12.90;6.03;;;14.80;83.30;;;;;;4937720;29;20567;-71
2022/09/04 02:24:34;;;;;;;16.65;5.68;;;14.80;84.40;;;;;;4951875;29;20089;-78
2022/09/04 02:27:08;;;;;;;11.95;5.75;;;14.80;84.70;;;;;;4955104;29;20083;-81
2022/09/04 02:29:49;;;;;;;11.90;5.72;;;14.70;83.70;;;;;;4937673;29;20050;-70
2022/09/04 02:32:54;;;;;;;15.38;5.88;;;14.70;83.80;;;;;;4937907;29;20122;-70
2022/09/04 02:35:48;;;;;;;12.98;5.82;;;14.70;84.20;;;;;;4925036;29;20198;-71
2022/09/04 02:38:19;;;;;;;15.88;5.97;;;14.70;83.50;;;;;;4937965;28;20058;-75
2022/09/04 02:41:23;;;;;;;13.10;6.20;;;14.60;83.20;;;;;;4955462;29;20051;-72
2022/09/04 02:44:27;;;;;;;17.02;6.07;;;14.60;84.20;;;;;;4955480;29;20426;-75
2022/09/04 02:47:05;;;;;;;10.30;5.68;;;14.60;84.50;;;;;;4922000;29;20062;-70
2022/09/04 02:49:50;;;;;;;12.38;5.88;;;14.60;84.00;;;;;;4937587;29;20348;-72
2022/09/04 02:52:49;;;;;;;14.32;5.80;;;14.50;84.30;;;;;;4938323;29;20047;-71
2022/09/04 02:55:18;;;;;;;24.45;6.05;;;14.50;84.40;;;;;;4955074;29;20051;-72
2022/09/04 02:57:55;;;;;;;14.45;6.00;;;14.50;83.90;;;;;;4954791;29;20141;-70
2022/09/04 03:00:39;;;;;;;15.25;6.13;;;14.40;83.90;;;;;;4937107;29;20135;-74
2022/09/04 03:03:46;;;;;;;15.65;6.45;;;14.50;84.40;;;;;;4937290;29;20054;-80
2022/09/04 03:06:21;;;;;;;14.40;6.15;;;14.40;85.30;;;;;;4943510;29;20057;-71
2022/09/04 03:09:00;;;;;;;12.48;6.22;;;14.40;85.00;;;;;;4936994;29;20047;-71
2022/09/04 03:11:51;;;;;;;15.60;6.80;;;14.30;84.70;;;;;;4954304;29;20543;-71
2022/09/04 03:14:23;;;;;;;13.75;6.15;;;14.30;85.00;;;;;;4921357;29;20484;-71
2022/09/04 03:17:14;;;;;;;15.50;6.75;;;14.30;85.10;;;;;;4954640;29;20047;-77
2022/09/04 03:19:58;;;;;;;14.95;6.47;;;14.30;85.90;;;;;;4937845;29;20082;-71
2022/09/04 03:22:27;;;;;;;19.02;6.65;;;14.20;85.40;;;;;;4954854;28;20138;-71
2022/09/04 03:25:35;;;;;;;18.40;6.80;;;14.20;85.20;;;;;;4954191;29;20051;-72
2022/09/04 03:28:01;;;;;;;13.70;6.82;;;14.20;86.30;;;;;;4937247;29;20130;-71
2022/09/04 03:30:30;;;;;;;18.02;6.85;;;14.10;85.70;;;;;;4954278;29;20234;-71
2022/09/04 03:33:20;;;;;;;13.13;6.82;;;14.10;86.40;;;;;;4953967;29;20043;-70
2022/09/04 03:36:19;;;;;;;17.25;7.03;;;14.10;86.40;;;;;;4937613;29;20058;-70
2022/09/04 03:39:14;;;;;;;17.25;7.45;;;14.10;86.10;;;;;;4954637;29;20058;-72
2022/09/04 03:42:26;;;;;;;19.20;7.10;;;14.10;86.10;;;;;;4921557;29;20051;-75
2022/09/04 03:45:36;;;;;;;16.45;7.30;;;14.00;86.30;;;;;;4903985;29;20139;-71
2022/09/04 03:48:59;;;;;;;16.83;7.40;;;14.00;86.00;;;;;;4936888;29;20514;-70
2022/09/04 03:52:03;;;;;;;19.15;7.88;;;14.00;86.10;;;;;;4879486;29;20493;-70
2022/09/04 03:54:53;;;;;;;17.30;7.55;;;14.00;86.40;;;;;;4893582;29;20068;-71
2022/09/04 03:57:37;;;;;;;16.52;7.32;;;14.00;86.00;;;;;;4955148;28;20102;-71
2022/09/04 04:00:17;;;;;;;16.77;7.10;;;14.00;86.60;;;;;;4958213;29;20051;-70
2022/09/04 04:02:50;;;;;;;16.58;7.10;;;13.90;86.60;;;;;;4958101;29;20121;-71
2022/09/04 04:05:55;;;;;;;14.55;7.68;;;13.90;86.10;;;;;;4941421;29;20044;-71
2022/09/04 04:08:50;;;;;;;13.68;6.75;;;13.90;87.30;;;;;;4957855;29;20067;-70
2022/09/04 04:11:28;;;;;;;17.05;8.07;;;13.90;87.60;;;;;;4957402;29;20061;-71
2022/09/04 04:14:24;;;;;;;17.55;7.63;;;13.80;87.40;;;;;;4957566;29;20047;-70
2022/09/04 04:16:56;;;;;;;17.00;7.72;;;13.80;87.50;;;;;;4940503;29;20491;-72
2022/09/04 04:20:02;;;;;;;14.65;8.00;;;13.80;86.80;;;;;;4940318;29;20047;-71
2022/09/04 04:23:06;;;;;;;15.13;7.57;;;13.80;87.70;;;;;;4927757;29;20151;-74
2022/09/04 04:25:49;;;;;;;19.20;8.00;;;13.80;88.20;;;;;;4924104;29;20061;-70
2022/09/04 04:28:18;;;;;;;14.43;7.63;;;13.70;87.80;;;;;;4939614;29;20122;-72
2022/09/04 04:30:47;;;;;;;15.95;7.68;;;13.70;87.20;;;;;;4940270;29;20102;-76
2022/09/04 04:33:21;;;;;;;13.55;8.20;;;13.70;87.40;;;;;;4957071;29;20055;-79
2022/09/04 04:36:27;;;;;;;17.92;8.23;;;13.70;87.70;;;;;;4957080;29;20110;-70
2022/09/04 04:38:59;;;;;;;19.80;7.78;;;13.70;88.60;;;;;;4940220;29;20052;-70
2022/09/04 04:42:04;;;;;;;15.48;8.02;;;13.70;87.60;;;;;;4956996;29;20074;-70
2022/09/04 04:47:50;;;;;;;20.75;8.50;;;13.60;87.70;;;;;;4956954;29;20051;-71
2022/09/04 04:50:48;;;;;;;16.02;8.30;;;13.60;87.80;;;;;;4940664;29;20083;-76
2022/09/04 04:53:32;;;;;;;20.30;8.00;;;13.60;87.90;;;;;;4940522;29;20456;-77
2022/09/04 04:56:22;;;;;;;15.88;8.38;;;13.60;88.00;;;;;;4956898;29;20059;-72
2022/09/04 04:59:08;;;;;;;18.30;8.38;;;13.60;88.80;;;;;;4939291;29;20051;-70
2022/09/04 05:02:03;;;;;;;18.38;8.13;;;13.60;88.40;;;;;;4957220;29;20127;-70
2022/09/04 05:04:46;;;;;;;17.33;8.30;;;13.60;88.00;;;;;;4956939;29;20051;-70
2022/09/04 05:07:36;;;;;;;17.00;7.55;;;13.70;88.50;;;;;;4956548;29;20146;-70
2022/09/04 05:10:19;;;;;;;18.58;8.55;;;13.60;88.00;;;;;;4939295;29;20051;-71
2022/09/04 05:13:06;;;;;;;17.73;8.27;;;13.70;88.40;;;;;;4939718;29;20093;-71
2022/09/04 05:15:53;;;;;;;16.05;7.68;;;13.70;88.00;;;;;;4957223;29;20055;-71
2022/09/04 05:18:29;;;;;;;20.30;8.40;;;13.80;87.90;;;;;;4956588;29;20460;-72
2022/09/04 05:21:07;;;;;;;18.13;8.75;;;13.80;88.10;;;;;;4957641;29;20074;-71
2022/09/04 05:24:09;;;;;;;15.75;8.07;;;13.80;88.00;;;;;;4939586;29;20047;-73
2022/09/04 05:26:35;;;;;;;18.83;8.38;;;13.90;88.30;;;;;;4956433;29;20094;-74
2022/09/04 05:29:03;;;;;;;15.95;8.25;;;13.90;87.90;;;;;;4939449;29;20107;-71
2022/09/04 05:31:47;;;;;;;19.60;8.48;;;14.00;87.90;;;;;;4939035;29;20050;-70
2022/09/04 05:34:37;;;;;;;17.63;8.50;;;14.00;87.90;;;;;;4940079;29;20047;-73
2022/09/04 05:37:06;;;;;;;17.23;8.27;;;14.10;88.30;;;;;;4957497;29;20472;-71
2022/09/04 05:39:56;;;;;;;24.00;8.75;;;14.10;87.90;;;;;;4956869;29;20055;-71
2022/09/04 05:42:52;;;;;;;14.73;8.20;;;14.20;88.00;;;;;;4940475;29;20055;-71
2022/09/04 05:45:53;;;;;;;23.05;9.18;;;14.30;88.20;;;;;;4940244;29;20058;-70
2022/09/04 05:48:31;;;;;;;18.35;8.43;;;14.40;88.30;;;;;;4957928;29;20114;-81
2022/09/04 05:51:35;;;;;;;17.33;8.98;;;14.40;87.90;;;;;;4941413;29;20055;-73
2022/09/04 05:54:26;;;;;;;22.40;9.10;;;14.50;88.20;;;;;;4957668;29;20171;-75
2022/09/04 05:57:10;;;;;;;17.85;8.45;;;14.60;87.80;;;;;;4957592;29;20115;-71
2022/09/04 05:59:39;;;;;;;33.17;8.80;;;14.70;87.90;;;;;;4959975;29;20082;-70
2022/09/04 06:02:23;;;;;;;21.85;8.70;;;14.70;87.50;;;;;;4957703;29;20410;-71
2022/09/04 06:05:03;;;;;;;17.77;8.65;;;14.70;88.30;;;;;;4960256;29;20149;-72
2022/09/04 06:07:59;;;;;;;20.52;8.88;;;14.80;87.80;;;;;;4926549;29;20102;-70
2022/09/04 06:10:48;;;;;;;20.15;9.40;;;14.80;88.60;;;;;;4943856;29;20101;-71
2022/09/04 06:13:32;;;;;;;20.00;9.05;;;14.80;88.20;;;;;;4914557;29;20389;-76
2022/09/04 06:16:10;;;;;;;23.48;9.57;;;14.90;88.00;;;;;;4959720;29;20119;-77
2022/09/04 06:18:57;;;;;;;21.67;9.02;;;14.90;87.90;;;;;;4926585;29;20059;-73
2022/09/04 06:21:55;;;;;;;19.92;9.20;;;15.00;88.10;;;;;;4940630;29;20051;-81
2022/09/04 06:24:42;;;;;;;17.75;9.60;;;15.00;88.00;;;;;;4941389;29;20055;-71
2022/09/04 06:27:16;;;;;;;17.50;8.85;;;15.00;88.00;;;;;;4957901;29;20047;-71
2022/09/04 06:30:05;;;;;;;17.45;9.35;;;15.00;88.30;;;;;;4941648;29;20090;-70
2022/09/04 06:32:53;;;;;;;16.33;8.95;;;15.00;88.70;;;;;;4957401;29;20058;-75
2022/09/04 06:35:31;;;;;;;25.52;9.68;;;15.00;89.20;;;;;;4940151;29;20495;-72
2022/09/04 06:38:31;;;;;;;20.17;9.98;;;15.10;88.70;;;;;;4957662;29;20058;-71
2022/09/04 06:41:21;;;;;;;22.10;9.65;;;15.10;88.70;;;;;;4957810;29;20493;-77
2022/09/04 06:44:14;;;;;;;22.23;9.52;;;15.20;89.50;;;;;;4942168;29;20043;-75
2022/09/04 06:47:07;;;;;;;18.90;9.68;;;15.30;88.80;;;;;;4958740;29;20058;-70
2022/09/04 06:49:47;;;;;;;17.60;9.45;;;15.30;89.30;;;;;;4920311;29;20506;-72
2022/09/04 06:52:32;;;;;;;18.52;9.43;;;15.30;89.60;;;;;;4941609;29;20051;-72
2022/09/04 06:55:02;;;;;;;21.98;9.57;;;15.40;88.90;;;;;;4958065;29;20070;-70
2022/09/04 06:57:51;;;;;;;20.15;9.60;;;15.50;88.70;;;;;;4941053;29;20047;-79
2022/09/04 07:00:18;;;;;;;23.55;9.98;;;15.60;89.30;;;;;;4959143;29;20094;-74
2022/09/04 07:03:03;;;;;;;22.52;10.15;;;15.70;88.60;;;;;;4958364;29;20051;-72
2022/09/04 07:05:51;;;;;;;21.58;9.98;;;15.80;89.20;;;;;;4940794;29;20053;-82
2022/09/04 07:08:25;;;;;;;20.20;9.90;;;16.00;89.50;;;;;;4939563;29;20066;-71
2022/09/04 07:11:02;;;;;;;24.80;10.48;;;16.10;88.50;;;;;;4958013;29;20373;-79
2022/09/04 07:13:31;;;;;;;;;;;16.20;88.90;;;;;;4957959;28;20469;-80
2022/09/04 07:16:08;;;;;;;22.83;9.68;;;16.30;89.00;;;;;;4958098;29;19923;-78
2022/09/04 07:19:06;;;;;;;20.85;9.23;;;16.40;89.00;;;;;;4943461;29;20059;-71
2022/09/04 07:22:04;;;;;;;22.88;9.55;;;16.60;88.20;;;;;;4960619;29;20134;-72
2022/09/04 07:25:07;;;;;;;21.70;10.10;;;16.70;88.10;;;;;;4960693;29;20080;-84
2022/09/04 07:27:34;;;;;;;22.98;10.10;;;16.80;88.50;;;;;;4960535;29;20135;-72
2022/09/04 07:30:12;;;;;;;20.52;9.80;;;16.90;87.90;;;;;;4942266;29;20051;-73
2022/09/04 07:32:52;;;;;;;18.95;10.15;;;17.10;87.80;;;;;;4944014;29;20518;-73
2022/09/04 07:35:46;;;;;;;20.20;10.07;;;17.10;87.30;;;;;;4963605;29;20051;-73
2022/09/04 07:38:20;;;;;;;18.75;9.90;;;17.20;87.50;;;;;;4962044;29;20059;-72
2022/09/04 07:40:55;;;;;;;32.00;10.13;;;17.30;87.80;;;;;;4962985;29;20082;-71
2022/09/04 07:43:39;;;;;;;25.35;10.48;;;17.40;87.70;;;;;;4946378;29;20058;-71
2022/09/04 07:46:20;;;;;;;18.90;9.93;;;17.60;87.40;;;;;;4963450;28;20039;-72
2022/09/04 07:48:52;;;;;;;18.95;9.70;;;17.70;87.00;;;;;;4964071;29;20119;-81
2022/09/04 07:51:26;;;;;;;18.02;9.57;;;17.80;87.10;;;;;;4946136;29;20105;-70
2022/09/04 07:54:06;;;;;;;19.70;9.88;;;17.80;87.10;;;;;;4962884;29;20054;-71
2022/09/04 07:56:47;;;;;;;15.90;8.68;;;17.90;87.10;;;;;;4944905;29;20139;-71
2022/09/04 07:59:49;;;;;;;25.42;10.55;;;18.10;87.10;;;;;;4946082;29;20140;-72
2022/09/04 08:02:35;;;;;;;20.85;8.95;;;18.20;86.80;;;;;;4946846;29;20051;-72
2022/09/04 08:05:06;;;;;;;21.80;10.18;;;18.30;86.70;;;;;;4931498;29;20079;-72
2022/09/04 08:07:32;;;;;;;20.50;8.95;;;18.30;86.60;;;;;;4961642;29;20090;-71
2022/09/04 08:10:22;;;;;;;20.67;9.90;;;18.40;86.50;;;;;;4961043;29;20051;-76
2022/09/04 08:12:55;;;;;;;22.20;9.60;;;18.50;86.80;;;;;;4962208;29;20054;-71
2022/09/04 08:15:41;;;;;;;18.80;9.75;;;18.60;86.40;;;;;;4963501;29;20075;-77
2022/09/04 08:18:22;;;;;;;15.15;9.18;;;18.70;86.60;;;;;;4946615;29;20051;-72
2022/09/04 08:21:05;;;;;;;18.67;9.70;;;18.80;86.30;;;;;;4946388;29;20500;-73
2022/09/04 08:23:58;;;;;;;16.83;9.07;;;18.90;86.50;;;;;;4961766;29;20086;-74
2022/09/04 08:26:47;;;;;;;21.40;9.90;;;19.10;86.50;;;;;;4963011;29;20047;-72
2022/09/04 08:29:38;;;;;;;19.38;9.60;;;19.10;86.40;;;;;;4944926;29;20473;-80
2022/09/04 08:32:23;;;;;;;21.45;9.68;;;19.20;86.30;;;;;;4961178;29;20044;-73
2022/09/04 08:35:10;;;;;;;20.85;9.00;;;19.30;86.30;;;;;;4960146;29;20456;-72
2022/09/04 08:38:07;;;;;;;18.42;9.57;;;19.40;86.40;;;;;;4926023;29;20162;-72
2022/09/04 08:41:05;;;;;;;24.88;11.25;;;19.50;86.10;;;;;;4959313;29;20073;-73
2022/09/04 08:44:04;;;;;;;21.42;9.95;;;19.70;86.00;;;;;;4941822;29;20468;-71
2022/09/04 08:46:40;;;;;;;18.20;10.00;;;19.70;86.20;;;;;;4925279;29;20051;-73
2022/09/04 08:49:15;;;;;;;24.33;10.25;;;19.80;86.10;;;;;;4958279;29;20043;-73
2022/09/04 08:52:13;;;;;;;17.73;9.52;;;20.00;86.00;;;;;;4957153;29;20130;-81
2022/09/04 08:55:04;;;;;;;19.08;9.50;;;20.10;86.90;;;;;;4931962;29;20058;-80
2022/09/04 08:58:06;;;;;;;24.63;10.13;;;20.20;86.40;;;;;;4957440;29;20055;-74
2022/09/04 09:00:38;;;;;;;24.63;10.88;;;20.30;86.30;;;;;;4938299;29;20059;-72
2022/09/04 09:03:24;;;;;;;22.35;10.35;;;20.30;86.00;;;;;;4940822;29;20051;-72
2022/09/04 09:06:25;;;;;;;18.27;10.55;;;20.40;85.90;;;;;;4957042;28;20059;-71
2022/09/04 09:09:06;;;;;;;17.23;10.00;;;20.50;86.10;;;;;;4939543;29;20521;-76
2022/09/04 09:11:42;;;;;;;18.63;10.00;;;20.60;86.10;;;;;;4956913;29;20066;-72
2022/09/04 09:14:41;;;;;;;19.85;10.02;;;20.80;86.00;;;;;;4956808;29;20129;-72
2022/09/04 09:17:36;;;;;;;22.90;9.85;;;20.90;85.60;;;;;;4956797;29;20126;-72
2022/09/04 09:20:23;;;;;;;18.90;9.20;;;21.00;85.60;;;;;;4905964;29;20138;-70
2022/09/04 09:23:13;;;;;;;17.92;8.73;;;21.10;85.50;;;;;;4939286;29;20138;-71
2022/09/04 09:25:51;;;;;;;18.27;9.23;;;21.30;85.60;;;;;;4939302;29;20043;-72
2022/09/04 09:28:16;;;;;;;18.55;9.40;;;21.40;85.20;;;;;;4939067;29;20055;-72
2022/09/04 09:31:20;;;;;;;18.20;9.17;;;21.50;84.70;;;;;;4956468;29;20047;-71
2022/09/04 09:34:25;;;;;;;16.40;9.75;;;21.60;84.70;;;;;;4957794;29;20054;-79
2022/09/04 09:37:23;;;;;;;16.27;8.82;;;21.70;84.30;;;;;;4957692;29;20058;-72
2022/09/04 09:40:23;;;;;;;16.33;8.25;;;21.80;83.90;;;;;;4940910;29;20120;-81
2022/09/04 09:43:14;;;;;;;18.90;8.55;;;22.00;83.80;;;;;;4956557;29;20134;-72
2022/09/04 09:45:55;;;;;;;15.30;7.90;;;22.10;82.80;;;;;;4956842;29;20090;-72
2022/09/04 09:48:40;;;;;;;19.30;8.85;;;22.30;83.50;;;;;;4956927;29;20067;-72
2022/09/04 09:51:32;;;;;;;15.38;8.80;;;22.40;81.90;;;;;;4955972;29;20058;-73
2022/09/04 09:54:36;;;;;;;25.15;9.43;;;22.30;82.70;;;;;;4935930;28;20070;-71
2022/09/04 09:57:41;;;;;;;22.80;8.23;;;22.50;82.10;;;;;;4938710;29;20058;-72
2022/09/04 10:00:16;;;;;;;15.82;8.40;;;22.50;83.10;;;;;;4925385;29;20090;-73
2022/09/04 10:03:01;;;;;;;18.73;8.10;;;22.70;81.90;;;;;;4956115;29;20051;-73
2022/09/04 10:05:38;;;;;;;20.45;7.85;;;22.80;80.90;;;;;;4939025;29;20058;-73
2022/09/04 10:08:31;;;;;;;13.10;7.68;;;23.00;80.30;;;;;;4956278;29;20118;-72
2022/09/04 10:11:22;;;;;;;16.10;8.15;;;23.00;80.80;;;;;;4956245;29;20054;-73
2022/09/04 10:14:06;;;;;;;15.25;7.70;;;23.10;81.10;;;;;;4955527;29;20137;-74
2022/09/04 10:16:44;;;;;;;19.73;7.85;;;23.20;81.00;;;;;;4922661;29;20054;-71
2022/09/04 10:19:23;;;;;;;18.58;8.05;;;23.40;79.70;;;;;;4955565;29;20042;-71
2022/09/04 10:22:23;;;;;;;12.63;7.30;;;23.30;80.10;;;;;;4939055;29;20526;-72
2022/09/04 10:24:57;;;;;;;12.82;7.57;;;23.40;80.40;;;;;;4955818;29;20109;-75
2022/09/04 10:27:45;;;;;;;13.85;7.40;;;23.60;79.70;;;;;;4938544;29;20436;-74
2022/09/04 10:30:11;;;;;;;15.60;7.20;;;23.70;79.20;;;;;;4955037;29;20102;-72
2022/09/04 10:32:54;;;;;;;15.25;7.30;;;23.80;79.40;;;;;;4955094;29;20047;-71
2022/09/04 10:35:25;;;;;;;14.15;7.07;;;23.90;79.10;;;;;;4938813;29;20467;-72
2022/09/04 10:38:02;;;;;;;16.00;6.85;;;24.00;78.70;;;;;;4955742;29;20047;-78
2022/09/04 10:41:07;;;;;;;10.90;6.55;;;24.10;78.70;;;;;;4955265;29;20094;-71
2022/09/04 10:43:39;;;;;;;16.50;7.47;;;24.20;78.50;;;;;;4955699;29;20067;-73
2022/09/04 10:46:16;;;;;;;13.48;7.35;;;24.20;77.80;;;;;;4956024;29;20083;-72
2022/09/04 10:49:09;;;;;;;13.52;6.90;;;24.30;77.70;;;;;;4956039;29;20146;-74
2022/09/04 10:51:58;;;;;;;16.92;7.82;;;24.40;77.70;;;;;;4917025;29;20142;-70
2022/09/04 10:55:01;;;;;;;14.52;7.50;;;24.50;77.70;;;;;;4955463;29;20047;-72
2022/09/04 10:58:03;;;;;;;15.57;7.05;;;24.50;77.50;;;;;;4955357;29;20058;-74
2022/09/04 11:01:03;;;;;;;14.90;6.88;;;24.50;77.70;;;;;;4955640;29;20110;-73
2022/09/04 11:03:51;;;;;;;13.48;6.35;;;24.50;77.50;;;;;;4936067;29;20059;-71
2022/09/04 11:07:04;;;;;;;12.43;6.60;;;24.50;77.70;;;;;;4938614;29;20047;-72
2022/09/04 11:09:41;;;;;;;14.50;7.20;;;24.50;77.30;;;;;;4896000;29;20079;-73
2022/09/04 11:12:32;;;;;;;12.10;5.65;;;24.60;77.40;;;;;;4896174;29;20048;-71
2022/09/04 11:15:29;;;;;;;9.88;5.78;;;24.70;76.90;;;;;;4925677;29;20063;-75
2022/09/04 11:18:13;;;;;;;9.60;5.65;;;24.80;76.60;;;;;;4923519;29;20428;-72
2022/09/04 11:21:01;;;;;;;7.88;5.15;;;24.70;77.60;;;;;;4956261;29;20360;-74
2022/09/04 11:24:01;;;;;;;10.18;5.80;;;24.90;77.00;;;;;;4955975;29;20058;-73
2022/09/04 11:26:48;;;;;;;10.02;6.68;;;24.90;76.90;;;;;;4938882;29;20044;-71
2022/09/04 11:29:29;;;;;;;11.63;6.28;;;24.90;76.90;;;;;;4956150;29;20066;-73
2022/09/04 11:32:24;;;;;;;14.63;5.80;;;25.00;77.10;;;;;;4956245;29;20197;-74
2022/09/04 11:34:50;;;;;;;8.40;5.25;;;25.00;77.40;;;;;;4955755;29;20047;-72
2022/09/04 11:37:42;;;;;;;11.27;5.60;;;25.10;77.30;;;;;;4939230;29;20477;-73
2022/09/04 11:40:37;;;;;;;13.82;5.90;;;25.20;77.00;;;;;;4937782;29;20059;-73
2022/09/04 11:43:07;;;;;;;10.35;5.53;;;25.20;77.00;;;;;;4888669;29;20068;-74
2022/09/04 11:45:57;;;;;;;15.00;6.13;;;25.30;76.90;;;;;;4958509;29;20055;-72
2022/09/04 11:48:49;;;;;;;8.38;5.05;;;25.30;76.60;;;;;;4956917;29;20043;-73
2022/09/04 11:51:20;;;;;;;10.27;5.05;;;25.40;76.70;;;;;;4917882;29;20062;-72
2022/09/04 11:54:05;;;;;;;8.63;5.15;;;25.50;76.10;;;;;;4957307;29;20122;-72
2022/09/04 11:57:10;;;;;;;13.20;5.60;;;25.70;75.00;;;;;;4956208;29;20053;-71
2022/09/04 12:00:00;;;;;;;11.57;5.10;;;25.70;75.00;;;;;;4955425;29;20047;-73
2022/09/04 12:02:28;;;;;;;8.65;5.00;;;25.70;75.10;;;;;;4955785;29;20047;-73
2022/09/04 12:05:09;;;;;;;9.93;4.97;;;25.70;75.40;;;;;;4954943;29;20082;-72
2022/09/04 12:07:51;;;;;;;8.60;4.97;;;25.80;75.40;;;;;;4921750;29;20055;-73
2022/09/04 12:10:27;;;;;;;10.30;5.20;;;25.90;74.20;;;;;;4955183;29;20157;-74
2022/09/04 12:13:13;;;;;;;9.32;5.40;;;25.80;74.30;;;;;;4937565;29;20071;-73
2022/09/04 12:15:54;;;;;;;9.48;5.20;;;25.90;75.20;;;;;;4922642;29;20098;-74
2022/09/04 12:18:40;;;;;;;13.07;5.28;;;25.90;75.70;;;;;;4938855;29;20397;-73
2022/09/04 12:21:20;;;;;;;10.00;5.55;;;26.00;75.50;;;;;;4958190;29;20519;-71
2022/09/04 12:24:08;;;;;;;13.02;5.55;;;26.10;75.40;;;;;;4958642;29;20333;-72
2022/09/04 12:26:48;;;;;;;12.38;5.20;;;26.10;75.00;;;;;;4958146;29;20043;-73
2022/09/04 12:29:37;;;;;;;9.43;5.35;;;26.30;74.90;;;;;;4957929;29;20046;-73
2022/09/04 12:32:10;;;;;;;9.77;5.20;;;26.30;74.80;;;;;;4949665;28;20159;-73
2022/09/04 12:34:45;;;;;;;11.32;5.90;;;26.30;74.20;;;;;;4940973;29;20043;-72
2022/09/04 12:37:32;;;;;;;10.88;5.32;;;26.30;75.00;;;;;;4924404;29;20107;-76
2022/09/04 12:40:16;;;;;;;10.32;5.13;;;26.30;74.60;;;;;;4958421;29;20131;-72
2022/09/04 12:43:12;;;;;;;9.15;4.95;;;26.30;75.20;;;;;;4957244;29;20047;-73
2022/09/04 12:46:13;;;;;;;10.40;4.93;;;26.30;74.40;;;;;;4941744;29;20455;-74
2022/09/04 12:48:47;;;;;;;11.25;5.70;;;26.30;74.20;;;;;;4909280;29;20047;-74
2022/09/04 12:51:25;;;;;;;13.07;5.43;;;26.50;74.60;;;;;;4940442;29;20047;-73
2022/09/04 12:54:13;;;;;;;11.00;5.93;;;26.40;74.20;;;;;;4924380;29;20058;-72
2022/09/04 12:57:05;;;;;;;9.45;5.10;;;26.40;71.90;;;;;;4910759;29;20058;-72
2022/09/04 12:59:45;;;;;;;10.68;5.50;;;26.20;73.70;;;;;;4957122;29;20047;-72
2022/09/04 13:02:23;;;;;;;14.38;5.80;;;26.30;74.10;;;;;;4940324;29;20051;-73
2022/09/04 13:05:10;;;;;;;11.55;5.80;;;26.50;73.80;;;;;;4958053;29;20379;-73
2022/09/04 13:07:57;;;;;;;10.02;5.50;;;26.50;73.90;;;;;;4957407;29;20051;-73
2022/09/04 13:10:41;;;;;;;10.18;5.47;;;26.50;74.10;;;;;;4958012;29;20384;-73
2022/09/04 13:13:37;;;;;;;10.55;5.90;;;26.60;73.60;;;;;;4939959;29;20058;-75
2022/09/04 13:16:17;;;;;;;;;;;26.60;73.10;;;;;;4924891;29;20051;-83
2022/09/04 13:19:21;;;;;;;9.98;5.57;;;26.50;73.10;;;;;;4957396;29;19928;-73
2022/09/04 13:22:02;;;;;;;12.73;6.30;;;26.40;73.10;;;;;;4957571;29;20429;-74
2022/09/04 13:25:11;;;;;;;9.27;5.90;;;26.30;73.10;;;;;;4958649;29;20043;-73
2022/09/04 13:28:17;;;;;;;11.75;6.20;;;26.20;73.40;;;;;;4957131;29;20472;-73
2022/09/04 13:30:59;;;;;;;8.27;5.50;;;26.20;73.50;;;;;;4957038;28;20051;-72
2022/09/04 13:33:38;;;;;;;10.07;5.68;;;26.30;73.80;;;;;;4957278;29;20102;-73
2022/09/04 13:37:03;;;;;;;9.95;5.50;;;26.50;73.70;;;;;;4958013;29;20124;-73
2022/09/04 13:39:54;;;;;;;10.70;5.00;;;26.50;72.50;;;;;;4928825;29;20059;-72
2022/09/04 13:42:41;;;;;;;9.27;5.65;;;26.60;73.60;;;;;;4957807;29;20055;-72
2022/09/04 13:45:22;;;;;;;8.27;5.47;;;26.60;73.00;;;;;;4957529;29;20047;-84
2022/09/04 13:48:03;;;;;;;10.68;6.03;;;26.70;73.10;;;;;;4956619;29;20231;-72
2022/09/04 13:50:32;;;;;;;11.68;6.63;;;26.50;72.00;;;;;;4956174;29;20043;-73
2022/09/04 13:53:15;;;;;;;13.95;6.13;;;26.80;72.50;;;;;;4924072;29;20051;-72
2022/09/04 13:55:49;;;;;;;13.43;5.93;;;27.00;72.50;;;;;;4939683;29;20126;-72
2022/09/04 13:58:22;;;;;;;11.13;6.82;;;27.10;72.10;;;;;;4956965;29;20412;-72
2022/09/04 14:00:58;;;;;;;12.82;6.03;;;27.20;72.00;;;;;;4939861;29;20099;-71
2022/09/04 14:03:32;;;;;;;11.95;6.50;;;27.20;71.60;;;;;;4957558;29;20061;-71
2022/09/04 14:05:58;;;;;;;10.98;6.05;;;27.20;72.00;;;;;;4939849;29;20126;-73
2022/09/04 14:08:30;;;;;;;;;;;27.30;72.20;;;;;;4956966;29;20062;-72
2022/09/04 14:11:29;;;;;;;18.80;6.18;;;27.30;70.50;;;;;;4940292;29;19929;-76
2022/09/04 14:14:29;;;;;;;12.98;6.63;;;27.20;70.00;;;;;;4956385;29;20054;-72
2022/09/04 14:16:57;;;;;;;13.45;5.70;;;27.30;69.40;;;;;;4956923;29;20073;-72